Balsa 91 — 3FTK7 — position and weather

sailwx.info

Track history (hours):
 
Tides and Currents Weather Stations Pressure Air Temp Water Temp Dewpoint Dewpoint Depression Visibility Wind Speed Wind Dir Waves Ship Positions

Balsa 91

Last reported at 2017-Sep-28 23:16 UTC. Time now 2017-Nov-24 00:21 UTC.
Position N 36°49' W 075°48'.
Warning: this ship's position is 56 days out of date.

Length 106 m; draft 7.1 m.

Type: Cargo ship. MMSI: 371895000.

Date/timePositionNaut miles runAvg speedWind from/ knotsBaromVisibWave heightAir tempDewpointWater temp
2017-Sep-28 23:16N 36°49' W 075°48'310.7
2017-Sep-28 23:00N 36°51' W 075°51'510.9
2017-Sep-28 22:31N 36°54' W 075°55'511.0
2017-Sep-28 22:01N 36°57' W 076°02'510.6
2017-Sep-28 21:31N 36°59' W 076°08'610.4
2017-Sep-28 20:55N 37°00' W 076°15'5 9.5
2017-Sep-28 20:26N 36°58' W 076°20'4 9.9
2017-Sep-28 20:00N 36°54' W 076°20'4 7.8
2017-Sep-28 19:31N 36°50' W 076°18'2 4.3
2017-Sep-28 19:00N 36°48' W 076°17'0 0.1
2017-Sep-28 18:30N 36°48' W 076°17'0 0.0
2017-Sep-28 18:00N 36°48' W 076°17'0 0.0
2017-Sep-28 17:30N 36°48' W 076°17'0 0.0
2017-Sep-28 17:00N 36°48' W 076°17'0 0.0
2017-Sep-28 16:30N 36°48' W 076°17'0 0.0
2017-Sep-28 16:00N 36°48' W 076°17'0 0.0
2017-Sep-28 15:30N 36°48' W 076°17'0 0.0
2017-Sep-28 15:00N 36°48' W 076°17'0 0.0
2017-Sep-28 14:30N 36°48' W 076°17'0 0.0
2017-Sep-28 13:57N 36°48' W 076°17'0 0.0
2017-Sep-28 13:30N 36°48' W 076°17'0 0.0
2017-Sep-28 13:00N 36°48' W 076°17'0 0.0
2017-Sep-28 12:30N 36°48' W 076°17'0 0.0
2017-Sep-28 12:00N 36°48' W 076°17'0 0.0
2017-Sep-28 11:30N 36°48' W 076°17'0 0.0
2017-Sep-28 11:00N 36°48' W 076°17'0 0.0
2017-Sep-28 10:30N 36°48' W 076°17'0 0.0
2017-Sep-28 10:00N 36°48' W 076°17'0 0.0
2017-Sep-28 09:30N 36°48' W 076°17'0 0.0
2017-Sep-28 09:00N 36°48' W 076°17'0 0.0
2017-Sep-28 08:30N 36°48' W 076°17'0 0.0
2017-Sep-28 07:57N 36°48' W 076°17'0 0.0
2017-Sep-28 07:30N 36°48' W 076°17'0 0.0
2017-Sep-28 07:00N 36°48' W 076°17'0 0.0
2017-Sep-28 06:30N 36°48' W 076°17'0 0.0
2017-Sep-28 06:00N 36°48' W 076°17'0 0.0
2017-Sep-28 05:30N 36°48' W 076°17'0 0.0
2017-Sep-28 05:00N 36°48' W 076°17'0 0.0
2017-Sep-28 04:30N 36°48' W 076°17'0 0.0
2017-Sep-28 04:00N 36°48' W 076°17'0 0.0
2017-Sep-28 03:30N 36°48' W 076°17'0 0.0
2017-Sep-28 03:00N 36°48' W 076°17'0 0.0
2017-Sep-28 02:30N 36°48' W 076°17'0 0.0
2017-Sep-28 02:00N 36°48' W 076°17'0 0.0
2017-Sep-28 01:30N 36°48' W 076°17'0 0.0
2017-Sep-28 01:00N 36°48' W 076°17'0 0.0
2017-Sep-28 00:30N 36°48' W 076°17'0 0.0
2017-Sep-28 00:00N 36°48' W 076°17'0 0.0
2017-Sep-27 23:30N 36°48' W 076°17'0 0.0
2017-Sep-27 23:00N 36°48' W 076°17'0 0.0
2017-Sep-27 22:30N 36°48' W 076°17'0 0.0
2017-Sep-27 22:00N 36°48' W 076°17'0 0.0
2017-Sep-27 21:30N 36°48' W 076°17'0 0.0
2017-Sep-27 21:00N 36°48' W 076°17'0 0.0
2017-Sep-27 20:30N 36°48' W 076°17'0 0.0
2017-Sep-27 19:54N 36°48' W 076°17'0 0.0
2017-Sep-27 19:30N 36°48' W 076°17'0 0.0
2017-Sep-27 19:00N 36°48' W 076°17'0 0.0
2017-Sep-27 18:30N 36°48' W 076°17'0 0.0
2017-Sep-27 18:00N 36°48' W 076°17'0 0.0
2017-Sep-27 17:30N 36°48' W 076°17'0 0.0
2017-Sep-27 17:00N 36°48' W 076°17'0 0.0
2017-Sep-27 16:30N 36°48' W 076°17'1 2.2
2017-Sep-27 16:00N 36°49' W 076°17'3 6.5
2017-Sep-27 15:30N 36°52' W 076°20'4 8.0
2017-Sep-27 15:00N 36°56' W 076°20'2 3.1
2017-Sep-27 14:21N 36°56' W 076°23'0 0.0
2017-Sep-27 13:51N 36°56' W 076°23'0 0.0
2017-Sep-27 08:06N 36°56' W 076°23'0 0.0
2017-Sep-27 07:57N 36°56' W 076°23'0 0.0
2017-Sep-27 07:24N 36°56' W 076°23'0 0.0
2017-Sep-27 06:54N 36°56' W 076°23'0 0.0
2017-Sep-27 06:30N 36°56' W 076°23'0 0.0
2017-Sep-27 06:00N 36°56' W 076°23'0 0.0
2017-Sep-27 05:27N 36°56' W 076°23'0 0.0
2017-Sep-27 04:57N 36°56' W 076°23'0 0.0
2017-Sep-27 04:30N 36°56' W 076°23'0 0.0
2017-Sep-27 04:00N 36°56' W 076°23'0 0.0
2017-Sep-27 03:30N 36°56' W 076°23'0 0.0
2017-Sep-27 02:57N 36°56' W 076°23'0 0.0
2017-Sep-27 02:24N 36°56' W 076°23'0 0.0
2017-Sep-27 02:00N 36°56' W 076°23'0 0.0
2017-Sep-27 01:21N 36°56' W 076°23'0 0.0
2017-Sep-26 23:06N 36°56' W 076°23'0 0.0
2017-Sep-26 23:00N 36°56' W 076°23'0 0.0
2017-Sep-26 20:30N 36°56' W 076°23'0 0.0
2017-Sep-26 19:39N 36°56' W 076°23'0 0.0
2017-Sep-26 19:24N 36°56' W 076°23'0 0.0
2017-Sep-26 14:24N 36°56' W 076°23'0 0.0
2017-Sep-26 13:57N 36°56' W 076°23'0 0.0
2017-Sep-26 04:45N 36°56' W 076°23'0 0.0
2017-Sep-26 04:30N 36°56' W 076°23'0 0.0
2017-Sep-26 03:27N 36°56' W 076°23'0 0.0
2017-Sep-26 03:00N 36°56' W 076°23'0 0.0
2017-Sep-26 02:27N 36°56' W 076°23'0 0.0
2017-Sep-26 01:57N 36°56' W 076°23'0 0.0
2017-Sep-26 01:27N 36°56' W 076°23'0 0.0
2017-Sep-26 00:57N 36°56' W 076°23'0 0.0
2017-Sep-26 00:27N 36°56' W 076°23'0 0.0
2017-Sep-25 23:15N 36°56' W 076°23'0 0.0
2017-Sep-25 22:57N 36°56' W 076°23'0 0.0
2017-Sep-25 22:15N 36°56' W 076°23'0 0.1
2017-Sep-25 22:00N 36°56' W 076°23'0 0.0
2017-Sep-25 21:30N 36°56' W 076°23'0 0.0
2017-Sep-25 20:45N 36°56' W 076°23'0 0.0
2017-Sep-25 20:30N 36°56' W 076°23'0 0.0
2017-Sep-25 20:00N 36°56' W 076°23'0 0.0
2017-Sep-25 19:27N 36°56' W 076°23'0 0.0
2017-Sep-25 13:33N 36°56' W 076°23'0 0.0
2017-Sep-25 13:30N 36°56' W 076°23'0 0.0
2017-Sep-25 12:57N 36°56' W 076°23'0 0.0
2017-Sep-25 12:27N 36°56' W 076°23'0 0.0
2017-Sep-25 12:00N 36°56' W 076°23'0 0.1
2017-Sep-25 11:27N 36°56' W 076°23'0 0.1
2017-Sep-25 10:45N 36°56' W 076°23'0 0.0
2017-Sep-25 10:30N 36°56' W 076°23'0 0.1
2017-Sep-25 09:27N 36°56' W 076°23'0 0.0
2017-Sep-25 08:57N 36°56' W 076°23'0 0.0
2017-Sep-25 08:27N 36°56' W 076°23'0 0.0
2017-Sep-25 07:57N 36°56' W 076°23'0 0.0
2017-Sep-25 07:30N 36°56' W 076°23'0 0.0
2017-Sep-25 07:00N 36°56' W 076°23'0 0.0
2017-Sep-25 06:30N 36°56' W 076°23'0 0.0
2017-Sep-25 06:00N 36°56' W 076°23'0 0.0
2017-Sep-25 05:24N 36°56' W 076°23'0 0.0
2017-Sep-25 05:00N 36°56' W 076°23'0 0.0
2017-Sep-25 04:27N 36°56' W 076°23'0 0.0
2017-Sep-25 04:00N 36°56' W 076°23'0 0.0
2017-Sep-25 03:30N 36°56' W 076°23'0 0.0
2017-Sep-25 03:00N 36°56' W 076°23'0 0.0
2017-Sep-25 02:30N 36°56' W 076°23'0 0.0
2017-Sep-25 01:57N 36°56' W 076°23'0 0.0
2017-Sep-24 21:33N 36°56' W 076°23'0 0.1
2017-Sep-24 21:21N 36°56' W 076°23'0 0.1
2017-Sep-24 20:33N 36°56' W 076°23'0 0.1
2017-Sep-24 20:27N 36°56' W 076°23'0 0.0
2017-Sep-24 19:51N 36°56' W 076°23'0 0.0
2017-Sep-24 19:30N 36°56' W 076°23'0 0.0
2017-Sep-24 19:00N 36°56' W 076°23'0 0.0
2017-Sep-24 18:27N 36°56' W 076°23'0 0.0
2017-Sep-24 18:00N 36°56' W 076°23'0 0.0
2017-Sep-24 17:30N 36°56' W 076°23'0 0.0
2017-Sep-24 17:00N 36°56' W 076°23'0 0.0
2017-Sep-24 16:30N 36°56' W 076°23'0 0.0
2017-Sep-24 15:57N 36°56' W 076°23'0 0.0
2017-Sep-24 15:30N 36°56' W 076°23'0 0.0
2017-Sep-24 15:00N 36°56' W 076°23'0 0.0
2017-Sep-24 14:18N 36°56' W 076°23'0 0.1
2017-Sep-24 13:42N 36°56' W 076°23'0 0.0
2017-Sep-24 13:30N 36°56' W 076°23'0 0.1
2017-Sep-24 13:00N 36°56' W 076°23'0 0.0
2017-Sep-24 12:30N 36°56' W 076°23'0 0.0
2017-Sep-24 11:00N 36°56' W 076°23'0 0.0
2017-Sep-24 10:27N 36°56' W 076°23'0 0.0
2017-Sep-24 07:09N 36°56' W 076°23'0 0.0
2017-Sep-24 06:51N 36°56' W 076°23'0 0.0
2017-Sep-24 06:27N 36°56' W 076°23'0 0.1
2017-Sep-24 05:33N 36°56' W 076°23'0 0.1
2017-Sep-24 05:30N 36°56' W 076°23'0 0.0
2017-Sep-24 04:18N 36°56' W 076°23'0 0.0
2017-Sep-24 04:00N 36°56' W 076°23'0 0.0
2017-Sep-24 00:54N 36°56' W 076°23'0 0.0
2017-Sep-23 20:12N 36°56' W 076°23'0 0.1
2017-Sep-23 19:36N 36°56' W 076°23'0 0.0
2017-Sep-22 01:57N 36°56' W 076°23'0 0.0
2017-Sep-22 01:09N 36°56' W 076°23'0 0.0
2017-Sep-22 00:48N 36°56' W 076°23'0 0.0
2017-Sep-22 00:15N 36°56' W 076°23'0 0.0
2017-Sep-21 23:57N 36°56' W 076°23'0 0.1
2017-Sep-21 22:58N 36°56' W 076°23'3 5.6
2017-Sep-21 22:31N 36°58' W 076°21'610.6
2017-Sep-21 21:57N 37°00' W 076°14'511.5
2017-Sep-21 21:29N 36°59' W 076°08'510.4
2017-Sep-21 21:00N 36°57' W 076°02'5 9.3
2017-Sep-21 20:30N 36°56' W 075°56'4 8.5
2017-Sep-21 20:00N 36°53' W 075°52'611.7
2017-Sep-21 19:30N 36°50' W 075°46'611.8
2017-Sep-21 19:00N 36°45' W 075°41'611.7
2017-Sep-21 18:31N 36°40' W 075°37'9611.1
2017-Sep-21 09:50N 35°15' W 074°44'  
Track history (hours):
 
Tides and Currents Weather Stations Pressure Air Temp Water Temp Dewpoint Dewpoint Depression Visibility Wind Speed Wind Dir Waves Ship Positions

Balsa 91

Last reported at 2017-Sep-28 23:16 UTC. Time now 2017-Nov-24 00:21 UTC.
Position N 36°49' W 075°48'.
Warning: this ship's position is 56 days out of date.

Length 106 m; draft 7.1 m.

Type: Cargo ship. MMSI: 371895000.

Date/timePositionNaut miles runAvg speedWind from/ knotsBaromVisibWave heightAir tempDewpointWater temp
2017-Sep-28 23:16N 36°49' W 075°48'310.7
2017-Sep-28 23:00N 36°51' W 075°51'510.9
2017-Sep-28 22:31N 36°54' W 075°55'511.0
2017-Sep-28 22:01N 36°57' W 076°02'510.6
2017-Sep-28 21:31N 36°59' W 076°08'610.4
2017-Sep-28 20:55N 37°00' W 076°15'5 9.5
2017-Sep-28 20:26N 36°58' W 076°20'4 9.9
2017-Sep-28 20:00N 36°54' W 076°20'4 7.8
2017-Sep-28 19:31N 36°50' W 076°18'2 4.3
2017-Sep-28 19:00N 36°48' W 076°17'0 0.1
2017-Sep-28 18:30N 36°48' W 076°17'0 0.0
2017-Sep-28 18:00N 36°48' W 076°17'0 0.0
2017-Sep-28 17:30N 36°48' W 076°17'0 0.0
2017-Sep-28 17:00N 36°48' W 076°17'0 0.0
2017-Sep-28 16:30N 36°48' W 076°17'0 0.0
2017-Sep-28 16:00N 36°48' W 076°17'0 0.0
2017-Sep-28 15:30N 36°48' W 076°17'0 0.0
2017-Sep-28 15:00N 36°48' W 076°17'0 0.0
2017-Sep-28 14:30N 36°48' W 076°17'0 0.0
2017-Sep-28 13:57N 36°48' W 076°17'0 0.0
2017-Sep-28 13:30N 36°48' W 076°17'0 0.0
2017-Sep-28 13:00N 36°48' W 076°17'0 0.0
2017-Sep-28 12:30N 36°48' W 076°17'0 0.0
2017-Sep-28 12:00N 36°48' W 076°17'0 0.0
2017-Sep-28 11:30N 36°48' W 076°17'0 0.0
2017-Sep-28 11:00N 36°48' W 076°17'0 0.0
2017-Sep-28 10:30N 36°48' W 076°17'0 0.0
2017-Sep-28 10:00N 36°48' W 076°17'0 0.0
2017-Sep-28 09:30N 36°48' W 076°17'0 0.0
2017-Sep-28 09:00N 36°48' W 076°17'0 0.0
2017-Sep-28 08:30N 36°48' W 076°17'0 0.0
2017-Sep-28 07:57N 36°48' W 076°17'0 0.0
2017-Sep-28 07:30N 36°48' W 076°17'0 0.0
2017-Sep-28 07:00N 36°48' W 076°17'0 0.0
2017-Sep-28 06:30N 36°48' W 076°17'0 0.0
2017-Sep-28 06:00N 36°48' W 076°17'0 0.0
2017-Sep-28 05:30N 36°48' W 076°17'0 0.0
2017-Sep-28 05:00N 36°48' W 076°17'0 0.0
2017-Sep-28 04:30N 36°48' W 076°17'0 0.0
2017-Sep-28 04:00N 36°48' W 076°17'0 0.0
2017-Sep-28 03:30N 36°48' W 076°17'0 0.0
2017-Sep-28 03:00N 36°48' W 076°17'0 0.0
2017-Sep-28 02:30N 36°48' W 076°17'0 0.0
2017-Sep-28 02:00N 36°48' W 076°17'0 0.0
2017-Sep-28 01:30N 36°48' W 076°17'0 0.0
2017-Sep-28 01:00N 36°48' W 076°17'0 0.0
2017-Sep-28 00:30N 36°48' W 076°17'0 0.0
2017-Sep-28 00:00N 36°48' W 076°17'0 0.0
2017-Sep-27 23:30N 36°48' W 076°17'0 0.0
2017-Sep-27 23:00N 36°48' W 076°17'0 0.0
2017-Sep-27 22:30N 36°48' W 076°17'0 0.0
2017-Sep-27 22:00N 36°48' W 076°17'0 0.0
2017-Sep-27 21:30N 36°48' W 076°17'0 0.0
2017-Sep-27 21:00N 36°48' W 076°17'0 0.0
2017-Sep-27 20:30N 36°48' W 076°17'0 0.0
2017-Sep-27 19:54N 36°48' W 076°17'0 0.0
2017-Sep-27 19:30N 36°48' W 076°17'0 0.0
2017-Sep-27 19:00N 36°48' W 076°17'0 0.0
2017-Sep-27 18:30N 36°48' W 076°17'0 0.0
2017-Sep-27 18:00N 36°48' W 076°17'0 0.0
2017-Sep-27 17:30N 36°48' W 076°17'0 0.0
2017-Sep-27 17:00N 36°48' W 076°17'0 0.0
2017-Sep-27 16:30N 36°48' W 076°17'1 2.2
2017-Sep-27 16:00N 36°49' W 076°17'3 6.5
2017-Sep-27 15:30N 36°52' W 076°20'4 8.0
2017-Sep-27 15:00N 36°56' W 076°20'2 3.1
2017-Sep-27 14:21N 36°56' W 076°23'0 0.0
2017-Sep-27 13:51N 36°56' W 076°23'0 0.0
2017-Sep-27 08:06N 36°56' W 076°23'0 0.0
2017-Sep-27 07:57N 36°56' W 076°23'0 0.0
2017-Sep-27 07:24N 36°56' W 076°23'0 0.0
2017-Sep-27 06:54N 36°56' W 076°23'0 0.0
2017-Sep-27 06:30N 36°56' W 076°23'0 0.0
2017-Sep-27 06:00N 36°56' W 076°23'0 0.0
2017-Sep-27 05:27N 36°56' W 076°23'0 0.0
2017-Sep-27 04:57N 36°56' W 076°23'0 0.0
2017-Sep-27 04:30N 36°56' W 076°23'0 0.0
2017-Sep-27 04:00N 36°56' W 076°23'0 0.0
2017-Sep-27 03:30N 36°56' W 076°23'0 0.0
2017-Sep-27 02:57N 36°56' W 076°23'0 0.0
2017-Sep-27 02:24N 36°56' W 076°23'0 0.0
2017-Sep-27 02:00N 36°56' W 076°23'0 0.0
2017-Sep-27 01:21N 36°56' W 076°23'0 0.0
2017-Sep-26 23:06N 36°56' W 076°23'0 0.0
2017-Sep-26 23:00N 36°56' W 076°23'0 0.0
2017-Sep-26 20:30N 36°56' W 076°23'0 0.0
2017-Sep-26 19:39N 36°56' W 076°23'0 0.0
2017-Sep-26 19:24N 36°56' W 076°23'0 0.0
2017-Sep-26 14:24N 36°56' W 076°23'0 0.0
2017-Sep-26 13:57N 36°56' W 076°23'0 0.0
2017-Sep-26 04:45N 36°56' W 076°23'0 0.0
2017-Sep-26 04:30N 36°56' W 076°23'0 0.0
2017-Sep-26 03:27N 36°56' W 076°23'0 0.0
2017-Sep-26 03:00N 36°56' W 076°23'0 0.0
2017-Sep-26 02:27N 36°56' W 076°23'0 0.0
2017-Sep-26 01:57N 36°56' W 076°23'0 0.0
2017-Sep-26 01:27N 36°56' W 076°23'0 0.0
2017-Sep-26 00:57N 36°56' W 076°23'0 0.0
2017-Sep-26 00:27N 36°56' W 076°23'0 0.0
2017-Sep-25 23:15N 36°56' W 076°23'0 0.0
2017-Sep-25 22:57N 36°56' W 076°23'0 0.0
2017-Sep-25 22:15N 36°56' W 076°23'0 0.1
2017-Sep-25 22:00N 36°56' W 076°23'0 0.0
2017-Sep-25 21:30N 36°56' W 076°23'0 0.0
2017-Sep-25 20:45N 36°56' W 076°23'0 0.0
2017-Sep-25 20:30N 36°56' W 076°23'0 0.0
2017-Sep-25 20:00N 36°56' W 076°23'0 0.0
2017-Sep-25 19:27N 36°56' W 076°23'0 0.0
2017-Sep-25 13:33N 36°56' W 076°23'0 0.0
2017-Sep-25 13:30N 36°56' W 076°23'0 0.0
2017-Sep-25 12:57N 36°56' W 076°23'0 0.0
2017-Sep-25 12:27N 36°56' W 076°23'0 0.0
2017-Sep-25 12:00N 36°56' W 076°23'0 0.1
2017-Sep-25 11:27N 36°56' W 076°23'0 0.1
2017-Sep-25 10:45N 36°56' W 076°23'0 0.0
2017-Sep-25 10:30N 36°56' W 076°23'0 0.1
2017-Sep-25 09:27N 36°56' W 076°23'0 0.0
2017-Sep-25 08:57N 36°56' W 076°23'0 0.0
2017-Sep-25 08:27N 36°56' W 076°23'0 0.0
2017-Sep-25 07:57N 36°56' W 076°23'0 0.0
2017-Sep-25 07:30N 36°56' W 076°23'0 0.0
2017-Sep-25 07:00N 36°56' W 076°23'0 0.0
2017-Sep-25 06:30N 36°56' W 076°23'0 0.0
2017-Sep-25 06:00N 36°56' W 076°23'0 0.0
2017-Sep-25 05:24N 36°56' W 076°23'0 0.0
2017-Sep-25 05:00N 36°56' W 076°23'0 0.0
2017-Sep-25 04:27N 36°56' W 076°23'0 0.0
2017-Sep-25 04:00N 36°56' W 076°23'0 0.0
2017-Sep-25 03:30N 36°56' W 076°23'0 0.0
2017-Sep-25 03:00N 36°56' W 076°23'0 0.0
2017-Sep-25 02:30N 36°56' W 076°23'0 0.0
2017-Sep-25 01:57N 36°56' W 076°23'0 0.0
2017-Sep-24 21:33N 36°56' W 076°23'0 0.1
2017-Sep-24 21:21N 36°56' W 076°23'0 0.1
2017-Sep-24 20:33N 36°56' W 076°23'0 0.1
2017-Sep-24 20:27N 36°56' W 076°23'0 0.0
2017-Sep-24 19:51N 36°56' W 076°23'0 0.0
2017-Sep-24 19:30N 36°56' W 076°23'0 0.0
2017-Sep-24 19:00N 36°56' W 076°23'0 0.0
2017-Sep-24 18:27N 36°56' W 076°23'0 0.0
2017-Sep-24 18:00N 36°56' W 076°23'0 0.0
2017-Sep-24 17:30N 36°56' W 076°23'0 0.0
2017-Sep-24 17:00N 36°56' W 076°23'0 0.0
2017-Sep-24 16:30N 36°56' W 076°23'0 0.0
2017-Sep-24 15:57N 36°56' W 076°23'0 0.0
2017-Sep-24 15:30N 36°56' W 076°23'0 0.0
2017-Sep-24 15:00N 36°56' W 076°23'0 0.0
2017-Sep-24 14:18N 36°56' W 076°23'0 0.1
2017-Sep-24 13:42N 36°56' W 076°23'0 0.0
2017-Sep-24 13:30N 36°56' W 076°23'0 0.1
2017-Sep-24 13:00N 36°56' W 076°23'0 0.0
2017-Sep-24 12:30N 36°56' W 076°23'0 0.0
2017-Sep-24 11:00N 36°56' W 076°23'0 0.0
2017-Sep-24 10:27N 36°56' W 076°23'0 0.0
2017-Sep-24 07:09N 36°56' W 076°23'0 0.0
2017-Sep-24 06:51N 36°56' W 076°23'0 0.0
2017-Sep-24 06:27N 36°56' W 076°23'0 0.1
2017-Sep-24 05:33N 36°56' W 076°23'0 0.1
2017-Sep-24 05:30N 36°56' W 076°23'0 0.0
2017-Sep-24 04:18N 36°56' W 076°23'0 0.0
2017-Sep-24 04:00N 36°56' W 076°23'0 0.0
2017-Sep-24 00:54N 36°56' W 076°23'0 0.0
2017-Sep-23 20:12N 36°56' W 076°23'0 0.1
2017-Sep-23 19:36N 36°56' W 076°23'0 0.0
2017-Sep-22 01:57N 36°56' W 076°23'0 0.0
2017-Sep-22 01:09N 36°56' W 076°23'0 0.0
2017-Sep-22 00:48N 36°56' W 076°23'0 0.0
2017-Sep-22 00:15N 36°56' W 076°23'0 0.0
2017-Sep-21 23:57N 36°56' W 076°23'0 0.1
2017-Sep-21 22:58N 36°56' W 076°23'3 5.6
2017-Sep-21 22:31N 36°58' W 076°21'610.6
2017-Sep-21 21:57N 37°00' W 076°14'511.5
2017-Sep-21 21:29N 36°59' W 076°08'510.4
2017-Sep-21 21:00N 36°57' W 076°02'5 9.3
2017-Sep-21 20:30N 36°56' W 075°56'4 8.5
2017-Sep-21 20:00N 36°53' W 075°52'611.7
2017-Sep-21 19:30N 36°50' W 075°46'611.8
2017-Sep-21 19:00N 36°45' W 075°41'611.7
2017-Sep-21 18:31N 36°40' W 075°37'9611.1
2017-Sep-21 09:50N 35°15' W 074°44'  

Dump ship's entire track history